Overview Statistics Trail Chart Weather Telemetry Raw packets
 

This is the latest recevied telemetry packets stored in our database for station/object DG5TS-99. If no packets are shown the sender has not sent any telemetry packets the latest 10 day(s).

Telemetry packets is used to share measurements like repeteater parameters, battery voltage, radiation readings (or any other measurements).

<< 1 2 3 4 >>
Time Press* Temp.in* Hum* QNH* Temp.out*
1788567033 1003.6 hPa 18.7 C deg 60.8 % 1015.4 hPa 0 C deg
1788563406 1003 hPa 19.1 C deg 60 % 1014.7 hPa 0 C deg
1788557957 1001.8 hPa 19.8 C deg 62.9 % 1013.5 hPa 0 C deg
1788557957 1001.8 hPa 19.8 C deg 62.9 % 1013.5 hPa 0 C deg
1788554327 1001.1 hPa 20.1 C deg 64.4 % 1012.8 hPa 0 C deg
1788552512 1000.8 hPa 20.4 C deg 64.3 % 1012.5 hPa 0 C deg
1788550697 1000.8 hPa 20.5 C deg 65.4 % 1012.5 hPa 0 C deg
1788548882 1000.5 hPa 20.8 C deg 65.5 % 1012.1 hPa 0 C deg
1788545252 999.7 hPa 21.6 C deg 64.6 % 1011.3 hPa 0 C deg
1788543444 999.1 hPa 22.1 C deg 63 % 1010.7 hPa 0 C deg
1788539806 998.8 hPa 23 C deg 58.7 % 1010.3 hPa 0 C deg
1788539806 998.8 hPa 23 C deg 58.7 % 1010.3 hPa 0 C deg
1788537992 998.7 hPa 23.7 C deg 56.8 % 1010.2 hPa 0 C deg
1788536177 998.6 hPa 24.6 C deg 54.6 % 1010.1 hPa 0 C deg
1788534368 998.9 hPa 25.9 C deg 51.3 % 1010.4 hPa 0 C deg
1788534366 998.9 hPa 25.9 C deg 51.3 % 1010.4 hPa 0 C deg
1788532547 999.3 hPa 26.9 C deg 49 % 1010.8 hPa 0 C deg
1788532547 999.3 hPa 26.9 C deg 49 % 1010.8 hPa 0 C deg
1788528924 998.4 hPa 29.7 C deg 40.9 % 1009.7 hPa 0 C deg
1788528924 998.4 hPa 29.7 C deg 40.9 % 1009.7 hPa 0 C deg
1788525287 996.6 hPa 30.3 C deg 42 % 1007.9 hPa 0 C deg
1788523471 997 hPa 28 C deg 47.4 % 1008.4 hPa 0 C deg
1788519841 997.9 hPa 25 C deg 54.2 % 1009.3 hPa 0 C deg
1788519841 997.9 hPa 25 C deg 54.2 % 1009.3 hPa 0 C deg
1788518026 998.1 hPa 25 C deg 54.4 % 1009.6 hPa 0 C deg
*Used Equation Coefficients:
Press: 0, 1, 0
Temp.in: 0, 1, 0
Hum: 0, 1, 0
QNH: 0, 1, 0
Temp.out: 0, 1, 0

  • The parameter names for the analog channels will be Value1, Value2, Value3 (up to Value5) if station has not sent a PARAM-packet that specifies the parameter names for each analog channel.
  • Each analog value is a decimal number between 000 and 255 (according to APRS specifications). The receiver use the telemetry equation coefficientsto to restore the original sensor values. If no EQNS-packet with equation coefficients is sent we will show the values as is (this corresponds to the equation coefficients a=0, b=1 and c=0).
    The sent equation coefficients is used in the equation: a * value2 + b * value + c.
  • The units for the analog values will not be shown if station has not sent a UNIT-packet specifying what unit's to use.
  • The parameter names for the digital bits will be Bit1, Bit2, Bit3 (up to Bit8) if station has not sent a PARAM-packet that specifies the parameter names for each digital bit.
  • All bit labels will be named "On" if station has not sent a UNIT-packet that specifies the label of each bit.
  • A bit is considered to be On when the bit is 1 if station has not sent a BITS-packet that specifies another "Bit sense" (a BITS-packet specify the state of the bits that match the BIT labels)